sensor_id;sensor_type;location;lat;lon;timestamp;pressure;altitude;pressure_sealevel;temperature;humidity
6565;BME280;3316;44.118;27.258;2023-02-20T00:01:54;100912.25;;;11.79;100.00
6565;BME280;3316;44.118;27.258;2023-02-20T00:04:19;100902.72;;;11.67;100.00
6565;BME280;3316;44.118;27.258;2023-02-20T00:06:45;100855.63;;;11.29;100.00
6565;BME280;3316;44.118;27.258;2023-02-20T00:09:11;100915.94;;;11.59;100.00
6565;BME280;3316;44.118;27.258;2023-02-20T00:11:36;100920.28;;;11.67;100.00
6565;BME280;3316;44.118;27.258;2023-02-20T00:14:02;100924.75;;;11.58;100.00
6565;BME280;3316;44.118;27.258;2023-02-20T00:16:27;100934.44;;;11.56;100.00
6565;BME280;3316;44.118;27.258;2023-02-20T00:18:53;100927.44;;;11.49;100.00
6565;BME280;3316;44.118;27.258;2023-02-20T00:21:18;100954.66;;;11.54;100.00
6565;BME280;3316;44.118;27.258;2023-02-20T00:23:44;100941.53;;;11.45;100.00
6565;BME280;3316;44.118;27.258;2023-02-20T00:26:11;100961.75;;;11.43;100.00
6565;BME280;3316;44.118;27.258;2023-02-20T00:28:40;100897.09;;;11.06;100.00
6565;BME280;3316;44.118;27.258;2023-02-20T00:31:07;100959.16;;;11.40;100.00
6565;BME280;3316;44.118;27.258;2023-02-20T00:33:33;100953.00;;;11.40;100.00
6565;BME280;3316;44.118;27.258;2023-02-20T00:35:59;100945.25;;;11.22;100.00
6565;BME280;3316;44.118;27.258;2023-02-20T00:38:24;100954.06;;;11.21;100.00
6565;BME280;3316;44.118;27.258;2023-02-20T00:40:50;100947.84;;;11.26;100.00
6565;BME280;3316;44.118;27.258;2023-02-20T00:43:15;100957.50;;;11.29;100.00
6565;BME280;3316;44.118;27.258;2023-02-20T00:45:41;100963.63;;;11.29;100.00
6565;BME280;3316;44.118;27.258;2023-02-20T00:48:06;100953.91;;;11.39;100.00
6565;BME280;3316;44.118;27.258;2023-02-20T00:50:32;100967.91;;;11.44;100.00
6565;BME280;3316;44.118;27.258;2023-02-20T00:52:57;100979.28;;;11.47;100.00
6565;BME280;3316;44.118;27.258;2023-02-20T00:55:23;100999.56;;;11.41;100.00
6565;BME280;3316;44.118;27.258;2023-02-20T00:57:48;101005.78;;;11.31;100.00
6565;BME280;3316;44.118;27.258;2023-02-20T01:00:24;101031.25;;;11.26;100.00
6565;BME280;3316;44.118;27.258;2023-02-20T01:02:50;101031.31;;;11.23;100.00
6565;BME280;3316;44.118;27.258;2023-02-20T01:05:15;101035.66;;;11.24;100.00
6565;BME280;3316;44.118;27.258;2023-02-20T01:07:40;101071.63;;;11.29;100.00
6565;BME280;3316;44.118;27.258;2023-02-20T01:10:07;101108.59;;;11.19;100.00
6565;BME280;3316;44.118;27.258;2023-02-20T01:12:33;101113.94;;;10.99;100.00
6565;BME280;3316;44.118;27.258;2023-02-20T01:14:59;101116.69;;;10.66;100.00
6565;BME280;3316;44.118;27.258;2023-02-20T01:17:24;101112.38;;;10.36;100.00
6565;BME280;3316;44.118;27.258;2023-02-20T01:19:50;101124.66;;;9.94;100.00
6565;BME280;3316;44.118;27.258;2023-02-20T01:22:15;101131.66;;;9.78;100.00
6565;BME280;3316;44.118;27.258;2023-02-20T01:24:41;101113.22;;;9.37;100.00
6565;BME280;3316;44.118;27.258;2023-02-20T01:27:08;101121.91;;;9.21;100.00
6565;BME280;3316;44.118;27.258;2023-02-20T01:29:34;101126.25;;;9.07;100.00
6565;BME280;3316;44.118;27.258;2023-02-20T01:31:59;101125.34;;;8.97;100.00
6565;BME280;3316;44.118;27.258;2023-02-20T01:34:25;101137.50;;;8.82;100.00
6565;BME280;3316;44.118;27.258;2023-02-20T01:36:53;101142.69;;;8.64;100.00
6565;BME280;3316;44.118;27.258;2023-02-20T01:39:21;101153.09;;;8.50;100.00
6565;BME280;3316;44.118;27.258;2023-02-20T01:41:50;101145.28;;;8.59;100.00
6565;BME280;3316;44.118;27.258;2023-02-20T01:44:19;101158.28;;;8.43;100.00
6565;BME280;3316;44.118;27.258;2023-02-20T01:46:51;101165.19;;;8.29;100.00
6565;BME280;3316;44.118;27.258;2023-02-20T01:49:24;101166.75;;;8.11;100.00
6565;BME280;3316;44.118;27.258;2023-02-20T01:51:57;101179.72;;;7.93;100.00
6565;BME280;3316;44.118;27.258;2023-02-20T01:54:25;101184.06;;;7.94;100.00
6565;BME280;3316;44.118;27.258;2023-02-20T01:56:53;101124.25;;;7.47;100.00
6565;BME280;3316;44.118;27.258;2023-02-20T01:59:22;101190.00;;;7.72;100.00
6565;BME280;3316;44.118;27.258;2023-02-20T02:01:47;101195.94;;;7.61;100.00
6565;BME280;3316;44.118;27.258;2023-02-20T02:04:14;101203.78;;;7.55;100.00
6565;BME280;3316;44.118;27.258;2023-02-20T02:06:43;101204.59;;;7.52;100.00
6565;BME280;3316;44.118;27.258;2023-02-20T02:09:55;101222.78;;;7.39;100.00
6565;BME280;3316;44.118;27.258;2023-02-20T02:12:19;101230.56;;;7.34;100.00
6565;BME280;3316;44.118;27.258;2023-02-20T02:14:45;101224.34;;;7.26;100.00
6565;BME280;3316;44.118;27.258;2023-02-20T02:20:27;101240.22;;;7.40;100.00
6565;BME280;3316;44.118;27.258;2023-02-20T02:34:53;101270.91;;;7.50;100.00
6565;BME280;3316;44.118;27.258;2023-02-20T02:40:37;101225.81;;;7.04;100.00
6565;BME280;3316;44.118;27.258;2023-02-20T02:50:37;101270.97;;;6.88;100.00
6565;BME280;3316;44.118;27.258;2023-02-20T02:53:07;101235.91;;;6.77;100.00
6565;BME280;3316;44.118;27.258;2023-02-20T02:55:33;101275.38;;;6.94;100.00
6565;BME280;3316;44.118;27.258;2023-02-20T02:58:00;101271.84;;;6.90;100.00
6565;BME280;3316;44.118;27.258;2023-02-20T03:03:20;101288.56;;;7.00;100.00
6565;BME280;3316;44.118;27.258;2023-02-20T03:05:58;101293.88;;;7.06;100.00
6565;BME280;3316;44.118;27.258;2023-02-20T03:08:40;101303.34;;;6.98;100.00
6565;BME280;3316;44.118;27.258;2023-02-20T03:11:19;101298.03;;;6.92;100.00
6565;BME280;3316;44.118;27.258;2023-02-20T03:17:00;101315.44;;;6.88;100.00
6565;BME280;3316;44.118;27.258;2023-02-20T03:19:42;101304.09;;;6.89;100.00
6565;BME280;3316;44.118;27.258;2023-02-20T03:22:20;101309.09;;;6.74;100.00
6565;BME280;3316;44.118;27.258;2023-02-20T03:24:50;101311.59;;;6.68;100.00
6565;BME280;3316;44.118;27.258;2023-02-20T03:27:39;101310.56;;;6.57;100.00
6565;BME280;3316;44.118;27.258;2023-02-20T03:30:49;101321.97;;;6.62;100.00
6565;BME280;3316;44.118;27.258;2023-02-20T03:33:24;101312.44;;;6.66;100.00
6565;BME280;3316;44.118;27.258;2023-02-20T03:36:13;101310.63;;;6.63;100.00
6565;BME280;3316;44.118;27.258;2023-02-20T03:39:06;101323.94;;;6.77;100.00
6565;BME280;3316;44.118;27.258;2023-02-20T03:41:53;101325.41;;;6.61;100.00
6565;BME280;3316;44.118;27.258;2023-02-20T03:44:38;101340.47;;;6.73;100.00
6565;BME280;3316;44.118;27.258;2023-02-20T03:47:05;101352.47;;;6.63;100.00
6565;BME280;3316;44.118;27.258;2023-02-20T03:49:39;101364.72;;;6.66;100.00
6565;BME280;3316;44.118;27.258;2023-02-20T03:52:06;101377.69;;;6.60;100.00
6565;BME280;3316;44.118;27.258;2023-02-20T03:54:34;101396.06;;;6.63;100.00
6565;BME280;3316;44.118;27.258;2023-02-20T03:57:12;101413.16;;;6.95;100.00
6565;BME280;3316;44.118;27.258;2023-02-20T03:59:49;101414.84;;;6.90;100.00
6565;BME280;3316;44.118;27.258;2023-02-20T04:02:26;101420.13;;;6.94;100.00
6565;BME280;3316;44.118;27.258;2023-02-20T04:04:55;101410.78;;;7.08;100.00
6565;BME280;3316;44.118;27.258;2023-02-20T04:07:30;101418.50;;;7.01;100.00
6565;BME280;3316;44.118;27.258;2023-02-20T04:09:59;101441.31;;;7.08;100.00
6565;BME280;3316;44.118;27.258;2023-02-20T04:12:30;101430.56;;;6.93;100.00
6565;BME280;3316;44.118;27.258;2023-02-20T04:14:58;101430.97;;;6.65;100.00
6565;BME280;3316;44.118;27.258;2023-02-20T04:17:31;101432.34;;;6.46;100.00
6565;BME280;3316;44.118;27.258;2023-02-20T04:19:58;101422.63;;;6.38;100.00
6565;BME280;3316;44.118;27.258;2023-02-20T04:22:28;101413.81;;;6.34;100.00
6565;BME280;3316;44.118;27.258;2023-02-20T04:24:57;101382.03;;;6.13;100.00
6565;BME280;3316;44.118;27.258;2023-02-20T04:27:25;101398.50;;;6.09;100.00
6565;BME280;3316;44.118;27.258;2023-02-20T04:29:50;101379.13;;;5.98;100.00
6565;BME280;3316;44.118;27.258;2023-02-20T04:32:16;101408.88;;;6.04;100.00
6565;BME280;3316;44.118;27.258;2023-02-20T04:34:42;101408.91;;;6.06;100.00
6565;BME280;3316;44.118;27.258;2023-02-20T04:37:10;101424.00;;;6.20;100.00
6565;BME280;3316;44.118;27.258;2023-02-20T04:39:37;101415.03;;;6.06;100.00
6565;BME280;3316;44.118;27.258;2023-02-20T04:42:02;101421.22;;;6.11;100.00
6565;BME280;3316;44.118;27.258;2023-02-20T04:44:28;101427.06;;;6.00;100.00
6565;BME280;3316;44.118;27.258;2023-02-20T04:46:58;101427.91;;;5.99;100.00
6565;BME280;3316;44.118;27.258;2023-02-20T04:49:24;101434.31;;;6.14;100.00
6565;BME280;3316;44.118;27.258;2023-02-20T04:51:50;101433.53;;;6.18;100.00
6565;BME280;3316;44.118;27.258;2023-02-20T04:54:15;101405.03;;;5.87;100.00
6565;BME280;3316;44.118;27.258;2023-02-20T04:56:41;101460.44;;;6.14;100.00
6565;BME280;3316;44.118;27.258;2023-02-20T04:59:06;101459.59;;;6.14;100.00
6565;BME280;3316;44.118;27.258;2023-02-20T05:01:32;101464.66;;;6.06;100.00
6565;BME280;3316;44.118;27.258;2023-02-20T05:03:57;101421.28;;;5.76;100.00
6565;BME280;3316;44.118;27.258;2023-02-20T05:06:22;101457.06;;;5.80;100.00
6565;BME280;3316;44.118;27.258;2023-02-20T05:08:48;101498.84;;;5.80;100.00
6565;BME280;3316;44.118;27.258;2023-02-20T05:11:14;101513.78;;;5.84;100.00
6565;BME280;3316;44.118;27.258;2023-02-20T05:13:39;101516.78;;;6.00;100.00
6565;BME280;3316;44.118;27.258;2023-02-20T05:16:05;101527.00;;;5.91;100.00
6565;BME280;3316;44.118;27.258;2023-02-20T05:18:31;101514.44;;;5.75;100.00
6565;BME280;3316;44.118;27.258;2023-02-20T05:20:56;101532.06;;;5.84;100.00
6565;BME280;3316;44.118;27.258;2023-02-20T05:23:41;101527.84;;;5.55;100.00
6565;BME280;3316;44.118;27.258;2023-02-20T05:26:11;101551.13;;;5.46;100.00
6565;BME280;3316;44.118;27.258;2023-02-20T05:28:37;101563.00;;;5.34;100.00
6565;BME280;3316;44.118;27.258;2023-02-20T05:31:05;101572.03;;;5.13;100.00
6565;BME280;3316;44.118;27.258;2023-02-20T05:33:30;101580.06;;;4.89;100.00
6565;BME280;3316;44.118;27.258;2023-02-20T05:35:57;101592.91;;;4.82;100.00
6565;BME280;3316;44.118;27.258;2023-02-20T05:38:22;101593.00;;;4.57;100.00
6565;BME280;3316;44.118;27.258;2023-02-20T05:40:48;101606.38;;;4.39;100.00
6565;BME280;3316;44.118;27.258;2023-02-20T05:43:16;101598.53;;;4.09;100.00
6565;BME280;3316;44.118;27.258;2023-02-20T05:45:41;101602.91;;;3.84;100.00
6565;BME280;3316;44.118;27.258;2023-02-20T05:48:07;101603.91;;;3.60;100.00
6565;BME280;3316;44.118;27.258;2023-02-20T05:50:32;101585.97;;;3.43;100.00
6565;BME280;3316;44.118;27.258;2023-02-20T05:52:57;101591.69;;;3.33;100.00
6565;BME280;3316;44.118;27.258;2023-02-20T05:55:23;101622.47;;;3.21;100.00
6565;BME280;3316;44.118;27.258;2023-02-20T05:57:48;101626.00;;;3.23;100.00
6565;BME280;3316;44.118;27.258;2023-02-20T06:00:14;101610.69;;;3.07;100.00
6565;BME280;3316;44.118;27.258;2023-02-20T06:02:39;101609.03;;;3.09;100.00
6565;BME280;3316;44.118;27.258;2023-02-20T06:05:05;101606.44;;;3.09;100.00
6565;BME280;3316;44.118;27.258;2023-02-20T06:07:32;101617.59;;;3.06;100.00
6565;BME280;3316;44.118;27.258;2023-02-20T06:09:58;101617.56;;;3.05;100.00
6565;BME280;3316;44.118;27.258;2023-02-20T06:12:23;101627.44;;;3.15;100.00
6565;BME280;3316;44.118;27.258;2023-02-20T06:14:49;101617.69;;;3.08;100.00
6565;BME280;3316;44.118;27.258;2023-02-20T06:17:14;101634.44;;;3.16;100.00
6565;BME280;3316;44.118;27.258;2023-02-20T06:19:40;101661.53;;;3.22;100.00
6565;BME280;3316;44.118;27.258;2023-02-20T06:22:05;101668.56;;;3.25;100.00
6565;BME280;3316;44.118;27.258;2023-02-20T06:24:31;101663.41;;;3.26;100.00
6565;BME280;3316;44.118;27.258;2023-02-20T06:26:56;101666.53;;;3.41;100.00
6565;BME280;3316;44.118;27.258;2023-02-20T06:29:22;101678.25;;;3.29;100.00
6565;BME280;3316;44.118;27.258;2023-02-20T06:31:48;101684.38;;;3.31;100.00
6565;BME280;3316;44.118;27.258;2023-02-20T06:34:15;101620.28;;;3.08;100.00
6565;BME280;3316;44.118;27.258;2023-02-20T06:36:41;101686.50;;;3.17;100.00
6565;BME280;3316;44.118;27.258;2023-02-20T06:39:08;101675.59;;;3.27;100.00
6565;BME280;3316;44.118;27.258;2023-02-20T06:41:35;101677.75;;;3.39;100.00
6565;BME280;3316;44.118;27.258;2023-02-20T06:44:00;101675.41;;;3.23;100.00
6565;BME280;3316;44.118;27.258;2023-02-20T06:46:26;101654.34;;;3.15;100.00
6565;BME280;3316;44.118;27.258;2023-02-20T06:48:54;101658.66;;;3.15;100.00
6565;BME280;3316;44.118;27.258;2023-02-20T06:51:24;101664.38;;;3.30;100.00
6565;BME280;3316;44.118;27.258;2023-02-20T06:53:50;101672.56;;;3.40;100.00
6565;BME280;3316;44.118;27.258;2023-02-20T06:56:18;101663.31;;;3.48;100.00
6565;BME280;3316;44.118;27.258;2023-02-20T06:58:49;101672.97;;;3.51;100.00
6565;BME280;3316;44.118;27.258;2023-02-20T07:01:16;101633.72;;;3.45;100.00
6565;BME280;3316;44.118;27.258;2023-02-20T07:03:42;101683.75;;;3.63;100.00
6565;BME280;3316;44.118;27.258;2023-02-20T07:06:09;101642.97;;;3.37;100.00
6565;BME280;3316;44.118;27.258;2023-02-20T07:08:35;101678.31;;;3.55;100.00
6565;BME280;3316;44.118;27.258;2023-02-20T07:11:01;101679.72;;;3.71;100.00
6565;BME280;3316;44.118;27.258;2023-02-20T07:13:26;101641.91;;;3.32;100.00
6565;BME280;3316;44.118;27.258;2023-02-20T07:15:52;101691.56;;;3.63;100.00
6565;BME280;3316;44.118;27.258;2023-02-20T07:18:17;101701.16;;;3.64;100.00
6565;BME280;3316;44.118;27.258;2023-02-20T07:20:45;101696.25;;;3.73;100.00
6565;BME280;3316;44.118;27.258;2023-02-20T07:23:10;101709.41;;;3.76;100.00
6565;BME280;3316;44.118;27.258;2023-02-20T07:25:36;101709.41;;;3.76;100.00
6565;BME280;3316;44.118;27.258;2023-02-20T07:28:01;101701.97;;;3.63;100.00
6565;BME280;3316;44.118;27.258;2023-02-20T07:30:27;101677.31;;;3.52;100.00
6565;BME280;3316;44.118;27.258;2023-02-20T07:32:53;101712.72;;;3.72;100.00
6565;BME280;3316;44.118;27.258;2023-02-20T07:35:18;101714.13;;;3.88;100.00
6565;BME280;3316;44.118;27.258;2023-02-20T07:37:43;101725.25;;;4.09;100.00
6565;BME280;3316;44.118;27.258;2023-02-20T07:40:11;101729.00;;;4.17;100.00
6565;BME280;3316;44.118;27.258;2023-02-20T07:42:36;101726.16;;;4.36;100.00
6565;BME280;3316;44.118;27.258;2023-02-20T07:45:02;101724.84;;;4.48;100.00
6565;BME280;3316;44.118;27.258;2023-02-20T07:47:27;101724.91;;;4.51;100.00
6565;BME280;3316;44.118;27.258;2023-02-20T07:49:53;101708.94;;;4.41;100.00
6565;BME280;3316;44.118;27.258;2023-02-20T07:52:18;101717.59;;;4.40;100.00
6565;BME280;3316;44.118;27.258;2023-02-20T07:54:44;101724.94;;;4.53;100.00
6565;BME280;3316;44.118;27.258;2023-02-20T07:57:09;101719.97;;;4.61;100.00
6565;BME280;3316;44.118;27.258;2023-02-20T07:59:35;101722.88;;;4.70;100.00
6565;BME280;3316;44.118;27.258;2023-02-20T08:02:00;101715.28;;;4.77;100.00
6565;BME280;3316;44.118;27.258;2023-02-20T08:04:26;101730.88;;;5.04;100.00
6565;BME280;3316;44.118;27.258;2023-02-20T08:06:52;101744.53;;;5.25;100.00
6565;BME280;3316;44.118;27.258;2023-02-20T08:09:17;101748.38;;;5.37;100.00
6565;BME280;3316;44.118;27.258;2023-02-20T08:11:42;101750.63;;;5.55;100.00
6565;BME280;3316;44.118;27.258;2023-02-20T08:14:08;101756.56;;;5.50;100.00
6565;BME280;3316;44.118;27.258;2023-02-20T08:16:33;101742.53;;;5.46;100.00
6565;BME280;3316;44.118;27.258;2023-02-20T08:18:59;101766.50;;;5.63;100.00
6565;BME280;3316;44.118;27.258;2023-02-20T08:21:25;101729.53;;;5.48;100.00
6565;BME280;3316;44.118;27.258;2023-02-20T08:23:50;101722.84;;;5.57;100.00
6565;BME280;3316;44.118;27.258;2023-02-20T08:26:17;101735.66;;;5.81;100.00
6565;BME280;3316;44.118;27.258;2023-02-20T08:28:43;101728.59;;;6.09;100.00
6565;BME280;3316;44.118;27.258;2023-02-20T08:31:10;101785.19;;;6.42;100.00
6565;BME280;3316;44.118;27.258;2023-02-20T08:33:36;101778.16;;;6.41;100.00
6565;BME280;3316;44.118;27.258;2023-02-20T08:36:10;101779.94;;;6.42;100.00
6565;BME280;3316;44.118;27.258;2023-02-20T08:38:37;101770.50;;;6.48;100.00
6565;BME280;3316;44.118;27.258;2023-02-20T08:41:09;101787.41;;;6.62;100.00
6565;BME280;3316;44.118;27.258;2023-02-20T08:43:36;101787.91;;;6.48;100.00
6565;BME280;3316;44.118;27.258;2023-02-20T08:46:02;101798.72;;;6.61;100.00
6565;BME280;3316;44.118;27.258;2023-02-20T08:48:28;101805.13;;;6.74;100.00
6565;BME280;3316;44.118;27.258;2023-02-20T08:50:53;101791.09;;;6.70;100.00
6565;BME280;3316;44.118;27.258;2023-02-20T08:53:19;101786.00;;;6.75;100.00
6565;BME280;3316;44.118;27.258;2023-02-20T08:55:45;101779.88;;;6.74;100.00
6565;BME280;3316;44.118;27.258;2023-02-20T08:58:10;101790.63;;;6.86;100.00
6565;BME280;3316;44.118;27.258;2023-02-20T09:00:36;101806.53;;;6.97;100.00
6565;BME280;3316;44.118;27.258;2023-02-20T09:03:02;101800.56;;;7.02;100.00
6565;BME280;3316;44.118;27.258;2023-02-20T09:05:32;101795.00;;;6.89;100.00
6565;BME280;3316;44.118;27.258;2023-02-20T09:07:58;101814.03;;;6.82;100.00
6565;BME280;3316;44.118;27.258;2023-02-20T09:10:23;101782.97;;;6.60;100.00
6565;BME280;3316;44.118;27.258;2023-02-20T09:12:49;101819.84;;;6.69;100.00
6565;BME280;3316;44.118;27.258;2023-02-20T09:15:14;101824.03;;;6.62;100.00
6565;BME280;3316;44.118;27.258;2023-02-20T09:17:43;101824.97;;;6.66;100.00
6565;BME280;3316;44.118;27.258;2023-02-20T09:20:10;101819.88;;;6.70;100.00
6565;BME280;3316;44.118;27.258;2023-02-20T09:22:36;101831.81;;;6.96;100.00
6565;BME280;3316;44.118;27.258;2023-02-20T09:25:04;101825.44;;;7.21;100.00
6565;BME280;3316;44.118;27.258;2023-02-20T09:27:30;101820.22;;;7.22;100.00
6565;BME280;3316;44.118;27.258;2023-02-20T09:29:55;101796.47;;;7.13;100.00
6565;BME280;3316;44.118;27.258;2023-02-20T09:32:21;101823.09;;;7.33;100.00
6565;BME280;3316;44.118;27.258;2023-02-20T09:34:46;101825.22;;;7.51;100.00
6565;BME280;3316;44.118;27.258;2023-02-20T09:37:13;101827.72;;;7.46;100.00
6565;BME280;3316;44.118;27.258;2023-02-20T09:39:38;101833.53;;;7.73;100.00
6565;BME280;3316;44.118;27.258;2023-02-20T09:51:01;101838.53;;;8.06;100.00
6565;BME280;3316;44.118;27.258;2023-02-20T09:54:29;101831.69;;;8.14;100.00
6565;BME280;3316;44.118;27.258;2023-02-20T09:56:29;101833.78;;;8.29;100.00
6565;BME280;3316;44.118;27.258;2023-02-20T10:01:27;101844.53;;;8.44;100.00
6565;BME280;3316;44.118;27.258;2023-02-20T10:06:22;101844.19;;;8.75;100.00
6565;BME280;3316;44.118;27.258;2023-02-20T10:08:52;101844.91;;;9.23;100.00
6565;BME280;3316;44.118;27.258;2023-02-20T10:11:28;101850.06;;;9.81;100.00
6565;BME280;3316;44.118;27.258;2023-02-20T10:17:03;101841.91;;;10.29;100.00
6565;BME280;3316;44.118;27.258;2023-02-20T10:22:12;101837.81;;;10.63;100.00
6565;BME280;3316;44.118;27.258;2023-02-20T10:32:58;101828.00;;;11.66;76.70
6565;BME280;3316;44.118;27.258;2023-02-20T10:35:31;101804.09;;;11.41;83.38
6565;BME280;3316;44.118;27.258;2023-02-20T10:38:03;101843.03;;;11.88;78.86
6565;BME280;3316;44.118;27.258;2023-02-20T10:43:07;101838.75;;;12.44;68.75
6565;BME280;3316;44.118;27.258;2023-02-20T10:45:51;101843.97;;;12.15;65.84
6565;BME280;3316;44.118;27.258;2023-02-20T10:48:22;101840.47;;;12.24;62.87
6565;BME280;3316;44.118;27.258;2023-02-20T10:50:58;101832.63;;;12.62;61.64
6565;BME280;3316;44.118;27.258;2023-02-20T10:53:47;101830.84;;;12.80;62.42
6565;BME280;3316;44.118;27.258;2023-02-20T10:56:29;101811.47;;;12.86;62.80
6565;BME280;3316;44.118;27.258;2023-02-20T10:59:06;101815.00;;;13.10;59.98
6565;BME280;3316;44.118;27.258;2023-02-20T11:01:34;101806.19;;;12.74;59.19
6565;BME280;3316;44.118;27.258;2023-02-20T11:04:13;101781.56;;;12.60;59.17
6565;BME280;3316;44.118;27.258;2023-02-20T11:07:07;101803.56;;;12.71;59.92
6565;BME280;3316;44.118;27.258;2023-02-20T11:09:34;101798.28;;;12.68;57.32
6565;BME280;3316;44.118;27.258;2023-02-20T11:12:00;101801.81;;;12.36;56.58
6565;BME280;3316;44.118;27.258;2023-02-20T11:14:39;101802.66;;;12.19;59.17
6565;BME280;3316;44.118;27.258;2023-02-20T11:17:11;101798.19;;;11.97;60.98
6565;BME280;3316;44.118;27.258;2023-02-20T11:19:53;101798.16;;;11.82;60.27
6565;BME280;3316;44.118;27.258;2023-02-20T11:22:39;101789.41;;;11.98;60.80
6565;BME280;3316;44.118;27.258;2023-02-20T11:25:29;101784.19;;;12.34;60.25
6565;BME280;3316;44.118;27.258;2023-02-20T11:27:59;101776.28;;;12.38;59.27
6565;BME280;3316;44.118;27.258;2023-02-20T11:30:34;101772.69;;;11.85;59.73
6565;BME280;3316;44.118;27.258;2023-02-20T11:33:33;101769.19;;;11.98;59.23
6565;BME280;3316;44.118;27.258;2023-02-20T11:36:37;101775.25;;;11.66;62.69
6565;BME280;3316;44.118;27.258;2023-02-20T11:39:19;101776.03;;;11.51;62.14
6565;BME280;3316;44.118;27.258;2023-02-20T11:41:45;101763.66;;;11.30;62.29
6565;BME280;3316;44.118;27.258;2023-02-20T11:46:38;101781.31;;;11.51;61.86
6565;BME280;3316;44.118;27.258;2023-02-20T11:49:09;101773.50;;;11.71;62.23
6565;BME280;3316;44.118;27.258;2023-02-20T11:51:45;101760.38;;;11.87;60.28
6565;BME280;3316;44.118;27.258;2023-02-20T11:54:13;101760.25;;;11.52;62.18
6565;BME280;3316;44.118;27.258;2023-02-20T11:57:05;101763.44;;;10.90;63.42
6565;BME280;3316;44.118;27.258;2023-02-20T11:59:44;101752.06;;;10.97;64.38
6565;BME280;3316;44.118;27.258;2023-02-20T12:05:12;101763.78;;;11.57;59.87
6565;BME280;3316;44.118;27.258;2023-02-20T12:10:23;101769.72;;;11.10;60.98
6565;BME280;3316;44.118;27.258;2023-02-20T12:12:50;101754.78;;;11.13;62.35
6565;BME280;3316;44.118;27.258;2023-02-20T12:15:20;101742.41;;;10.99;63.34
6565;BME280;3316;44.118;27.258;2023-02-20T12:20:30;101753.66;;;10.73;65.24
6565;BME280;3316;44.118;27.258;2023-02-20T12:31:21;101738.88;;;10.97;62.72
6565;BME280;3316;44.118;27.258;2023-02-20T12:34:16;101731.84;;;10.90;63.19
6565;BME280;3316;44.118;27.258;2023-02-20T12:37:23;101727.50;;;11.01;63.85
6565;BME280;3316;44.118;27.258;2023-02-20T12:45:25;101712.22;;;10.44;62.63
6565;BME280;3316;44.118;27.258;2023-02-20T12:54:06;101705.69;;;10.01;68.10
6565;BME280;3316;44.118;27.258;2023-02-20T12:56:52;101698.84;;;10.14;67.68
6565;BME280;3316;44.118;27.258;2023-02-20T12:59:30;101699.81;;;10.26;66.70
6565;BME280;3316;44.118;27.258;2023-02-20T13:02:03;101688.44;;;10.26;66.48
6565;BME280;3316;44.118;27.258;2023-02-20T13:04:52;101684.91;;;10.25;67.28
6565;BME280;3316;44.118;27.258;2023-02-20T13:07:27;101696.56;;;10.59;66.26
6565;BME280;3316;44.118;27.258;2023-02-20T13:10:15;101687.72;;;10.55;67.95
6565;BME280;3316;44.118;27.258;2023-02-20T13:12:41;101688.63;;;10.54;68.39
6565;BME280;3316;44.118;27.258;2023-02-20T13:21:09;101677.16;;;10.45;64.96
6565;BME280;3316;44.118;27.258;2023-02-20T13:23:36;101675.31;;;10.33;67.36
6565;BME280;3316;44.118;27.258;2023-02-20T13:28:51;101660.25;;;10.11;67.97
6565;BME280;3316;44.118;27.258;2023-02-20T13:52:41;101667.28;;;10.17;68.55
6565;BME280;3316;44.118;27.258;2023-02-20T13:57:56;101668.94;;;10.06;70.29
6565;BME280;3316;44.118;27.258;2023-02-20T14:03:18;101663.69;;;10.07;65.82
6565;BME280;3316;44.118;27.258;2023-02-20T14:05:45;101669.78;;;10.02;65.13
6565;BME280;3316;44.118;27.258;2023-02-20T14:08:17;101673.28;;;10.02;63.24
6565;BME280;3316;44.118;27.258;2023-02-20T14:10:43;101664.50;;;10.00;63.47
6565;BME280;3316;44.118;27.258;2023-02-20T14:13:17;101670.66;;;10.02;63.82
6565;BME280;3316;44.118;27.258;2023-02-20T14:15:57;101651.47;;;10.11;65.82
6565;BME280;3316;44.118;27.258;2023-02-20T14:18:26;101658.50;;;10.10;65.36
6565;BME280;3316;44.118;27.258;2023-02-20T14:20:57;101659.38;;;10.12;64.32
6565;BME280;3316;44.118;27.258;2023-02-20T14:23:29;101660.19;;;10.08;65.49
6565;BME280;3316;44.118;27.258;2023-02-20T14:25:59;101665.50;;;10.13;65.58
6565;BME280;3316;44.118;27.258;2023-02-20T14:28:28;101683.16;;;10.26;64.17
6565;BME280;3316;44.118;27.258;2023-02-20T14:31:36;101672.63;;;10.26;64.19
6565;BME280;3316;44.118;27.258;2023-02-20T14:33:57;101640.78;;;9.93;65.16
6565;BME280;3316;44.118;27.258;2023-02-20T14:36:44;101668.94;;;10.09;65.72
6565;BME280;3316;44.118;27.258;2023-02-20T14:39:37;101660.09;;;9.95;66.60
6565;BME280;3316;44.118;27.258;2023-02-20T14:42:13;101664.41;;;9.88;67.29
6565;BME280;3316;44.118;27.258;2023-02-20T14:44:39;101665.28;;;9.90;67.30
6565;BME280;3316;44.118;27.258;2023-02-20T14:47:11;101665.53;;;10.16;66.32
6565;BME280;3316;44.118;27.258;2023-02-20T14:49:38;101672.50;;;10.11;67.37
6565;BME280;3316;44.118;27.258;2023-02-20T14:52:17;101672.41;;;10.05;66.71
6565;BME280;3316;44.118;27.258;2023-02-20T14:54:55;101677.72;;;10.08;67.53
6565;BME280;3316;44.118;27.258;2023-02-20T14:57:21;101665.38;;;10.01;67.10
6565;BME280;3316;44.118;27.258;2023-02-20T14:59:46;101656.47;;;9.83;66.14
6565;BME280;3316;44.118;27.258;2023-02-20T15:02:22;101658.03;;;9.63;67.82
6565;BME280;3316;44.118;27.258;2023-02-20T15:04:51;101638.50;;;9.40;68.68
6565;BME280;3316;44.118;27.258;2023-02-20T15:07:20;101648.03;;;9.31;69.29
6565;BME280;3316;44.118;27.258;2023-02-20T15:09:48;101676.19;;;9.41;69.46
6565;BME280;3316;44.118;27.258;2023-02-20T15:12:25;101659.38;;;9.25;71.04
6565;BME280;3316;44.118;27.258;2023-02-20T15:14:59;101659.31;;;9.21;72.24
6565;BME280;3316;44.118;27.258;2023-02-20T15:17:37;101660.94;;;9.11;72.49
6565;BME280;3316;44.118;27.258;2023-02-20T15:20:28;101657.22;;;8.91;73.25
6565;BME280;3316;44.118;27.258;2023-02-20T15:25:40;101670.28;;;8.89;75.13
6565;BME280;3316;44.118;27.258;2023-02-20T15:33:28;101667.56;;;8.80;76.97